Terminal Aerodrome Forecast
Issued by NWS

Home | Current Version | Previous Version | Text Only | Print | Product List | Glossary On
Versions: 1 2 3 4 5 6 7 8 9 10 11 12 13 14 15
000
FTUS44 KHGX 231125
TAFLBX
TAF
KLBX 231125Z 2312/2412 35003KT P6SM MIFG FEW021
     FM231400 VRB03KT P6SM FEW025
     FM231800 15009KT P6SM VCTS SCT040CB SCT250
     FM232200 13009KT P6SM FEW250
     FM240200 VRB02KT P6SM FEW250=

USA.gov is the U.S. government's official web portal to all federal, state and local government web resources and services.